createdAt,value
2023-01-31T00:01:41.885Z,1.80
2023-01-31T00:04:11.667Z,1.80
2023-01-31T00:06:44.915Z,1.80
2023-01-31T00:09:13.995Z,1.80
2023-01-31T00:11:41.817Z,1.80
2023-01-31T00:14:11.363Z,1.80
2023-01-31T00:16:39.320Z,1.80
2023-01-31T00:19:07.659Z,1.80
2023-01-31T00:21:36.080Z,1.80
2023-01-31T00:24:05.992Z,1.80
2023-01-31T00:26:35.949Z,1.80
2023-01-31T00:29:05.749Z,1.80
2023-01-31T00:31:35.312Z,1.80
2023-01-31T00:34:03.535Z,1.80
2023-01-31T00:36:33.513Z,1.80
2023-01-31T00:39:02.670Z,1.80
2023-01-31T00:41:32.466Z,1.80
2023-01-31T00:44:00.643Z,1.80
2023-01-31T00:46:28.702Z,1.80
2023-01-31T00:48:57.303Z,1.80
2023-01-31T00:51:26.908Z,1.80
2023-01-31T00:53:55.153Z,1.70
2023-01-31T00:56:25.604Z,1.80
2023-01-31T00:58:55.586Z,1.80
2023-01-31T01:01:26.100Z,1.70
2023-01-31T01:03:54.791Z,1.70
2023-01-31T01:06:23.048Z,1.70
2023-01-31T01:08:50.860Z,1.70
2023-01-31T01:11:24.650Z,1.80
2023-01-31T01:13:54.128Z,1.70
2023-01-31T01:16:23.664Z,1.80
2023-01-31T01:18:51.895Z,1.80
2023-01-31T01:21:21.428Z,1.70
2023-01-31T01:23:50.064Z,1.70
2023-01-31T01:26:20.689Z,1.80
2023-01-31T01:28:49.423Z,1.70
2023-01-31T01:31:19.862Z,1.70
2023-01-31T01:33:49.463Z,1.70
2023-01-31T01:36:21.845Z,1.70
2023-01-31T01:38:50.239Z,1.70
2023-01-31T01:41:18.234Z,1.70
2023-01-31T01:43:48.643Z,1.70
2023-01-31T01:46:20.958Z,1.70
2023-01-31T01:48:52.264Z,1.70
2023-01-31T01:51:20.813Z,1.70
2023-01-31T01:53:52.827Z,1.70
2023-01-31T01:56:25.202Z,1.70
2023-01-31T01:59:00.608Z,1.70
2023-01-31T02:01:37.055Z,1.70
2023-01-31T02:04:07.928Z,1.70
2023-01-31T02:06:36.063Z,1.70
2023-01-31T02:09:05.467Z,1.60
2023-01-31T02:11:33.678Z,1.70
2023-01-31T02:14:04.650Z,1.70
2023-01-31T02:16:34.016Z,1.70
2023-01-31T02:19:02.456Z,1.70
2023-01-31T02:22:12.199Z,1.70
2023-01-31T02:25:10.236Z,1.70
2023-01-31T02:28:07.639Z,1.70
2023-01-31T02:31:12.074Z,1.70
2023-01-31T02:33:45.626Z,1.70
2023-01-31T02:36:26.775Z,1.70
2023-01-31T02:39:03.591Z,1.70
2023-01-31T02:41:37.739Z,1.70
2023-01-31T02:44:34.025Z,1.70
2023-01-31T02:47:06.085Z,1.70
2023-01-31T02:49:41.489Z,1.60
2023-01-31T02:52:19.586Z,1.70
2023-01-31T02:55:13.957Z,1.70
2023-01-31T02:57:43.023Z,1.70
2023-01-31T03:00:13.472Z,1.70
2023-01-31T03:02:41.320Z,1.60
2023-01-31T03:05:15.891Z,1.60
2023-01-31T03:07:47.916Z,1.60
2023-01-31T03:10:24.567Z,1.60
2023-01-31T03:13:01.745Z,1.70
2023-01-31T03:15:57.842Z,1.70
2023-01-31T03:18:34.946Z,1.60
2023-01-31T03:21:10.311Z,1.60
2023-01-31T03:23:42.084Z,1.60
2023-01-31T03:26:11.134Z,1.60
2023-01-31T03:28:42.199Z,1.60
2023-01-31T03:31:17.554Z,1.60
2023-01-31T03:33:49.246Z,1.60
2023-01-31T03:36:27.721Z,1.60
2023-01-31T03:39:06.304Z,1.60
2023-01-31T03:41:43.953Z,1.60
2023-01-31T03:44:17.039Z,1.60
2023-01-31T03:46:49.784Z,1.60
2023-01-31T03:49:21.720Z,1.60
2023-01-31T03:51:58.905Z,1.50
2023-01-31T03:54:30.610Z,1.50
2023-01-31T03:57:03.295Z,1.50
2023-01-31T03:59:37.091Z,1.60
2023-01-31T04:02:08.859Z,1.50
2023-01-31T04:04:40.687Z,1.50
2023-01-31T04:07:10.477Z,1.40
2023-01-31T04:09:39.149Z,1.40
2023-01-31T04:12:07.574Z,1.40
2023-01-31T04:14:35.398Z,1.40
2023-01-31T04:17:03.220Z,1.40
2023-01-31T04:19:31.097Z,1.40
2023-01-31T04:21:58.958Z,1.40
2023-01-31T04:24:28.302Z,1.40
2023-01-31T04:26:56.160Z,1.30
2023-01-31T04:29:24.025Z,1.40
2023-01-31T04:31:51.981Z,1.40
2023-01-31T04:34:19.903Z,1.40
2023-01-31T04:36:47.792Z,1.40
2023-01-31T04:39:16.623Z,1.40
2023-01-31T04:41:45.830Z,1.40
2023-01-31T04:44:13.661Z,1.40
2023-01-31T04:46:41.547Z,1.30
2023-01-31T04:49:09.876Z,1.20
2023-01-31T04:51:37.790Z,1.40
2023-01-31T04:54:05.805Z,1.30
2023-01-31T04:56:33.692Z,1.30
2023-01-31T04:59:03.003Z,1.30
2023-01-31T05:01:30.916Z,1.30
2023-01-31T05:03:58.710Z,1.30
2023-01-31T05:06:26.870Z,1.30
2023-01-31T05:08:55.157Z,1.30
2023-01-31T05:11:22.949Z,1.30
2023-01-31T05:13:50.757Z,1.30
2023-01-31T05:16:19.947Z,1.30
2023-01-31T05:18:50.773Z,1.30
2023-01-31T05:21:18.662Z,1.30
2023-01-31T05:23:46.542Z,1.30
2023-01-31T05:26:14.421Z,1.30
2023-01-31T05:28:42.685Z,1.30
2023-01-31T05:31:13.052Z,1.30
2023-01-31T05:33:42.946Z,1.30
2023-01-31T05:36:10.882Z,1.30
2023-01-31T05:38:38.723Z,1.30
2023-01-31T05:41:06.645Z,1.30
2023-01-31T05:43:36.303Z,1.30
2023-01-31T05:46:04.631Z,1.30
2023-01-31T05:48:32.491Z,1.30
2023-01-31T05:51:02.083Z,1.30
2023-01-31T05:53:30.082Z,1.30
2023-01-31T05:55:57.862Z,1.30
2023-01-31T05:58:26.018Z,1.30
2023-01-31T06:00:56.836Z,1.30
2023-01-31T06:03:24.768Z,1.30
2023-01-31T06:05:52.564Z,1.30
2023-01-31T06:08:21.678Z,1.30
2023-01-31T06:10:49.479Z,1.30
2023-01-31T06:13:17.346Z,1.30
2023-01-31T06:15:45.356Z,1.30
2023-01-31T06:18:14.467Z,1.30
2023-01-31T06:20:42.266Z,1.30
2023-01-31T06:23:10.063Z,1.30
2023-01-31T06:25:39.280Z,1.30
2023-01-31T06:28:07.358Z,1.20
2023-01-31T06:30:35.305Z,1.30
2023-01-31T06:33:03.712Z,1.30
2023-01-31T06:35:33.711Z,1.30
2023-01-31T06:38:01.501Z,1.30
2023-01-31T06:40:30.666Z,1.20
2023-01-31T06:43:00.842Z,1.20
2023-01-31T06:45:29.105Z,1.30
2023-01-31T06:47:56.953Z,1.30
2023-01-31T06:50:24.861Z,1.30
2023-01-31T06:52:52.701Z,1.30
2023-01-31T06:55:20.967Z,1.20
2023-01-31T06:57:49.804Z,1.30
2023-01-31T07:00:20.330Z,1.30
2023-01-31T07:02:49.072Z,1.30
2023-01-31T07:05:17.159Z,1.30
2023-01-31T07:07:45.183Z,1.30
2023-01-31T07:10:13.600Z,1.30
2023-01-31T07:12:41.779Z,1.10
2023-01-31T07:15:11.084Z,1.00
2023-01-31T07:17:40.205Z,1.00
2023-01-31T07:20:09.273Z,1.10
2023-01-31T07:22:37.035Z,1.10
2023-01-31T07:25:05.478Z,1.20
2023-01-31T07:27:33.262Z,1.20
2023-01-31T07:30:01.094Z,1.20
2023-01-31T07:32:31.031Z,1.20
2023-01-31T07:35:00.393Z,1.20
2023-01-31T07:37:28.297Z,1.20
2023-01-31T07:39:56.129Z,1.20
2023-01-31T07:42:24.003Z,1.20
2023-01-31T07:44:51.870Z,1.30
2023-01-31T07:47:19.730Z,1.30
2023-01-31T07:49:49.627Z,1.30
2023-01-31T07:52:18.911Z,1.20
2023-01-31T07:54:46.706Z,1.30
2023-01-31T07:57:17.626Z,1.30
2023-01-31T07:59:45.724Z,1.30
2023-01-31T08:02:32.004Z,1.30
2023-01-31T08:04:59.870Z,1.30
2023-01-31T08:07:30.023Z,1.30
2023-01-31T08:09:59.844Z,1.50
2023-01-31T08:12:27.760Z,1.90
2023-01-31T08:14:55.533Z,1.90
2023-01-31T08:17:23.345Z,4.60
2023-01-31T08:19:51.105Z,4.60
2023-01-31T08:22:19.098Z,4.70
2023-01-31T08:24:48.270Z,4.60
2023-01-31T08:27:16.231Z,4.30
2023-01-31T08:29:44.065Z,3.30
2023-01-31T08:32:11.863Z,2.50
2023-01-31T08:34:39.675Z,2.30
2023-01-31T08:37:07.544Z,2.70
2023-01-31T08:39:35.370Z,3.10
2023-01-31T08:42:04.811Z,3.10
2023-01-31T08:44:32.718Z,3.90
2023-01-31T08:47:02.285Z,4.40
2023-01-31T08:49:30.318Z,4.80
2023-01-31T08:51:58.126Z,4.00
2023-01-31T08:54:25.924Z,3.80
2023-01-31T08:56:53.727Z,3.90
2023-01-31T08:59:22.980Z,4.00
2023-01-31T09:01:50.850Z,3.60
2023-01-31T09:04:18.648Z,3.50
2023-01-31T09:06:46.404Z,3.50
2023-01-31T09:09:14.149Z,3.70
2023-01-31T09:11:41.873Z,3.80
2023-01-31T09:14:09.670Z,3.60
2023-01-31T09:16:39.097Z,3.60
2023-01-31T09:19:06.994Z,3.70
2023-01-31T09:21:34.934Z,3.90
2023-01-31T09:24:03.707Z,3.80
2023-01-31T09:26:32.264Z,3.90
2023-01-31T09:29:01.406Z,4.10
2023-01-31T09:31:30.056Z,4.00
2023-01-31T09:33:59.207Z,4.00
2023-01-31T09:36:27.708Z,3.90
2023-01-31T09:38:56.843Z,4.00
2023-01-31T09:41:31.172Z,3.60
2023-01-31T09:44:02.964Z,3.60
2023-01-31T09:46:38.029Z,3.40
2023-01-31T09:49:10.987Z,3.40
2023-01-31T09:51:40.317Z,3.30
2023-01-31T09:54:18.225Z,3.20
2023-01-31T09:56:52.931Z,3.00
2023-01-31T09:59:24.719Z,2.80
2023-01-31T10:02:00.507Z,2.80
2023-01-31T10:04:54.954Z,2.80
2023-01-31T10:07:29.557Z,2.90
2023-01-31T10:10:04.642Z,3.20
2023-01-31T10:12:38.016Z,3.30
2023-01-31T10:15:13.432Z,3.30
2023-01-31T10:17:46.117Z,3.40
2023-01-31T10:20:22.128Z,3.30
2023-01-31T10:22:59.311Z,3.30
2023-01-31T10:25:29.182Z,3.30
2023-01-31T10:28:02.028Z,3.30
2023-01-31T10:30:41.591Z,3.40
2023-01-31T10:33:20.268Z,3.30
2023-01-31T10:35:52.263Z,3.40
2023-01-31T10:38:24.500Z,3.50
2023-01-31T10:40:57.504Z,3.70
2023-01-31T10:43:35.940Z,3.60
2023-01-31T10:46:09.334Z,3.60
2023-01-31T10:48:37.143Z,3.70
2023-01-31T10:51:18.049Z,3.90
2023-01-31T10:53:58.471Z,3.90
2023-01-31T10:56:30.522Z,4.00
2023-01-31T10:58:59.821Z,3.90
2023-01-31T11:01:28.675Z,3.80
2023-01-31T11:03:57.715Z,3.60
2023-01-31T11:06:26.804Z,3.60
2023-01-31T11:08:58.095Z,3.50
2023-01-31T11:11:29.292Z,3.60
2023-01-31T11:13:59.210Z,3.50
2023-01-31T11:16:31.017Z,3.50
2023-01-31T11:19:00.114Z,3.50
2023-01-31T11:21:32.997Z,3.50
2023-01-31T11:24:04.678Z,3.40
2023-01-31T11:26:35.033Z,3.50
2023-01-31T11:29:08.230Z,3.50
2023-01-31T11:31:42.894Z,3.50
2023-01-31T11:34:21.671Z,3.40
2023-01-31T11:36:51.260Z,3.40
2023-01-31T11:39:28.459Z,3.30
2023-01-31T11:41:56.684Z,3.40
2023-01-31T11:44:24.959Z,3.40
2023-01-31T11:46:56.419Z,3.40
2023-01-31T11:49:30.152Z,3.40
2023-01-31T11:52:02.258Z,3.50
2023-01-31T11:54:32.850Z,3.40
2023-01-31T11:57:02.260Z,3.40
2023-01-31T11:59:32.409Z,3.40
2023-01-31T12:02:01.702Z,3.40
2023-01-31T12:04:35.071Z,3.40
2023-01-31T12:07:06.379Z,3.50
2023-01-31T12:09:43.972Z,3.50
2023-01-31T12:12:36.483Z,3.50
2023-01-31T12:15:06.495Z,3.40
2023-01-31T12:17:43.726Z,3.40
2023-01-31T12:20:28.438Z,3.40
2023-01-31T12:23:08.260Z,3.50
2023-01-31T12:25:54.983Z,3.50
2023-01-31T12:28:33.831Z,3.40
2023-01-31T12:31:25.487Z,3.50
2023-01-31T12:34:17.532Z,3.40
2023-01-31T12:36:58.673Z,3.40
2023-01-31T12:39:51.285Z,3.40
2023-01-31T12:42:36.464Z,3.40
2023-01-31T12:45:37.213Z,3.40
2023-01-31T12:48:31.411Z,3.40
2023-01-31T12:51:07.496Z,3.40
2023-01-31T12:53:51.575Z,3.30
2023-01-31T12:56:37.441Z,3.30
2023-01-31T12:59:16.481Z,3.60
2023-01-31T13:01:51.654Z,4.00
2023-01-31T13:04:34.626Z,4.00
2023-01-31T13:07:07.102Z,3.90
2023-01-31T13:09:36.940Z,3.80
2023-01-31T13:12:12.997Z,3.80
2023-01-31T13:14:44.649Z,3.80
2023-01-31T13:17:16.231Z,3.90
2023-01-31T13:19:49.736Z,4.10
2023-01-31T13:22:22.958Z,4.10
2023-01-31T13:24:58.276Z,4.00
2023-01-31T13:27:31.954Z,4.10
2023-01-31T13:30:03.323Z,4.20
2023-01-31T13:32:38.889Z,4.10
2023-01-31T13:35:16.402Z,3.90
2023-01-31T13:37:47.545Z,3.80
2023-01-31T13:40:20.686Z,3.70
2023-01-31T13:42:51.071Z,3.60
2023-01-31T13:45:24.853Z,3.60
2023-01-31T13:47:55.288Z,3.50
2023-01-31T13:50:36.642Z,3.50
2023-01-31T13:53:06.697Z,3.50
2023-01-31T13:55:39.143Z,3.40
2023-01-31T13:58:16.070Z,3.40
2023-01-31T14:00:46.155Z,3.40
2023-01-31T14:03:16.367Z,3.30
2023-01-31T14:05:59.387Z,3.30
2023-01-31T14:08:57.135Z,3.30
2023-01-31T14:11:35.735Z,3.30
2023-01-31T14:14:38.711Z,3.30
2023-01-31T14:17:06.978Z,3.30
2023-01-31T14:20:04.264Z,3.20
2023-01-31T14:22:34.994Z,3.30
2023-01-31T14:25:05.980Z,3.30
2023-01-31T14:27:43.888Z,3.20
2023-01-31T14:30:39.993Z,3.20
2023-01-31T14:33:24.457Z,3.20
2023-01-31T14:36:35.008Z,3.20
2023-01-31T14:39:37.940Z,3.20
2023-01-31T14:42:28.083Z,3.20
2023-01-31T14:45:24.557Z,3.20
2023-01-31T14:48:15.277Z,3.20
2023-01-31T14:50:58.548Z,3.20
2023-01-31T14:54:00.592Z,3.20
2023-01-31T14:56:49.621Z,3.20
2023-01-31T14:59:32.060Z,3.20
2023-01-31T15:02:00.600Z,3.20
2023-01-31T15:04:30.253Z,3.20
2023-01-31T15:06:58.791Z,3.10
2023-01-31T15:09:38.842Z,3.10
2023-01-31T15:12:45.397Z,3.10
2023-01-31T15:15:25.162Z,3.10
2023-01-31T15:17:54.558Z,3.10
2023-01-31T15:20:29.357Z,3.10
2023-01-31T15:23:04.718Z,3.10
2023-01-31T15:25:36.674Z,3.10
2023-01-31T15:28:06.368Z,3.10
2023-01-31T15:30:36.751Z,3.10
2023-01-31T15:33:09.347Z,3.00
2023-01-31T15:35:47.360Z,3.00
2023-01-31T15:38:23.988Z,3.00
2023-01-31T15:41:07.338Z,3.00
2023-01-31T15:43:38.757Z,3.00
2023-01-31T15:46:22.937Z,3.00
2023-01-31T15:48:51.281Z,3.00
2023-01-31T15:51:20.987Z,3.00
2023-01-31T15:53:49.674Z,3.00
2023-01-31T15:56:21.689Z,3.00
2023-01-31T15:58:52.173Z,3.00
2023-01-31T16:01:20.181Z,3.00
2023-01-31T16:03:53.673Z,3.00
2023-01-31T16:06:30.438Z,2.90
2023-01-31T16:09:01.591Z,2.90
2023-01-31T16:11:33.689Z,2.90
2023-01-31T16:14:04.655Z,2.90
2023-01-31T16:16:35.652Z,2.90
2023-01-31T16:19:04.313Z,2.90
2023-01-31T16:21:37.894Z,2.90
2023-01-31T16:24:14.700Z,2.90
2023-01-31T16:26:52.470Z,2.90
2023-01-31T16:29:23.423Z,2.90
2023-01-31T16:31:53.506Z,2.90
2023-01-31T16:34:26.083Z,2.90
2023-01-31T16:36:58.451Z,2.90
2023-01-31T16:39:34.193Z,2.80
2023-01-31T16:42:02.874Z,2.90
2023-01-31T16:44:35.930Z,2.90
2023-01-31T16:47:04.609Z,2.90
2023-01-31T16:49:35.487Z,2.90
2023-01-31T16:52:25.338Z,2.90
2023-01-31T16:54:54.793Z,3.00
2023-01-31T16:57:38.302Z,3.00
2023-01-31T17:00:09.190Z,2.90
2023-01-31T17:02:42.115Z,2.90
2023-01-31T17:05:19.949Z,2.90
2023-01-31T17:07:49.946Z,2.90
2023-01-31T17:10:22.094Z,2.90
2023-01-31T17:12:52.196Z,2.80
2023-01-31T17:15:21.317Z,2.80
2023-01-31T17:17:50.364Z,2.90
2023-01-31T17:20:20.321Z,2.90
2023-01-31T17:23:00.889Z,2.90
2023-01-31T17:25:33.194Z,2.90
2023-01-31T17:28:01.247Z,2.90
2023-01-31T17:30:30.991Z,2.90
2023-01-31T17:32:58.932Z,2.90
2023-01-31T17:35:29.217Z,2.90
2023-01-31T17:37:58.582Z,2.90
2023-01-31T17:40:26.739Z,2.90
2023-01-31T17:42:57.787Z,2.90
2023-01-31T17:45:26.169Z,2.90
2023-01-31T17:47:54.033Z,2.90
2023-01-31T17:50:24.046Z,2.90
2023-01-31T17:52:52.553Z,2.90
2023-01-31T17:55:23.938Z,2.90
2023-01-31T17:57:52.095Z,2.90
2023-01-31T18:00:20.901Z,2.90
2023-01-31T18:02:52.710Z,2.90
2023-01-31T18:05:33.504Z,2.90
2023-01-31T18:08:06.155Z,2.90
2023-01-31T18:10:35.318Z,2.90
2023-01-31T18:13:03.114Z,2.90
2023-01-31T18:15:30.883Z,2.90
2023-01-31T18:17:58.685Z,2.90
2023-01-31T18:20:26.573Z,2.90
2023-01-31T18:22:54.415Z,2.90
2023-01-31T18:25:22.591Z,2.90
2023-01-31T18:27:51.978Z,2.90
2023-01-31T18:30:20.118Z,2.90
2023-01-31T18:32:47.944Z,2.80
2023-01-31T18:35:15.806Z,2.90
2023-01-31T18:37:43.612Z,2.90
2023-01-31T18:40:12.906Z,2.90
2023-01-31T18:42:40.661Z,2.90
2023-01-31T18:45:10.634Z,2.90
2023-01-31T18:47:38.474Z,2.80
2023-01-31T18:50:07.616Z,2.80
2023-01-31T18:52:35.734Z,2.80
2023-01-31T18:55:03.661Z,2.90
2023-01-31T18:57:31.386Z,2.90
2023-01-31T18:59:59.192Z,2.90
2023-01-31T19:02:28.389Z,2.90
2023-01-31T19:04:56.289Z,2.80
2023-01-31T19:07:24.115Z,2.80
2023-01-31T19:09:52.154Z,2.80
2023-01-31T19:12:20.019Z,2.90
2023-01-31T19:14:48.344Z,2.80
2023-01-31T19:17:17.205Z,2.90
2023-01-31T19:19:46.455Z,2.90
2023-01-31T19:22:14.373Z,2.90
2023-01-31T19:24:42.152Z,2.90
2023-01-31T19:27:09.927Z,2.90
2023-01-31T19:29:39.808Z,2.90
2023-01-31T19:32:07.682Z,2.90
2023-01-31T19:34:36.370Z,2.90
2023-01-31T19:37:05.483Z,2.90
2023-01-31T19:39:33.428Z,2.90
2023-01-31T19:42:01.271Z,2.80
2023-01-31T19:44:29.053Z,2.90
2023-01-31T19:46:56.790Z,2.90
2023-01-31T19:49:24.566Z,2.90
2023-01-31T19:51:52.330Z,2.90
2023-01-31T19:54:22.418Z,2.90
2023-01-31T19:56:50.207Z,2.90
2023-01-31T19:59:19.642Z,2.90
2023-01-31T20:01:47.459Z,2.90
2023-01-31T20:04:15.266Z,2.90
2023-01-31T20:06:43.058Z,2.80
2023-01-31T20:09:15.944Z,2.80
2023-01-31T20:11:45.060Z,2.90
2023-01-31T20:14:12.825Z,2.90
2023-01-31T20:16:40.657Z,2.90
2023-01-31T20:19:08.707Z,2.90
2023-01-31T20:21:36.554Z,2.90
2023-01-31T20:24:04.596Z,2.90
2023-01-31T20:26:32.909Z,2.80
2023-01-31T20:29:02.262Z,2.90
2023-01-31T20:31:30.279Z,2.90
2023-01-31T20:33:58.114Z,2.80
2023-01-31T20:36:25.959Z,2.90
2023-01-31T20:38:53.846Z,2.90
2023-01-31T20:41:22.361Z,2.90
2023-01-31T20:43:50.563Z,2.90
2023-01-31T20:46:20.145Z,2.80
2023-01-31T20:48:47.969Z,2.90
2023-01-31T20:51:15.962Z,2.90
2023-01-31T20:53:46.501Z,2.80
2023-01-31T20:56:14.733Z,2.80
2023-01-31T20:58:43.898Z,2.90
2023-01-31T21:01:12.458Z,2.80
2023-01-31T21:03:41.649Z,2.80
2023-01-31T21:06:09.563Z,2.90
2023-01-31T21:08:39.825Z,2.80
2023-01-31T21:11:10.149Z,2.80
2023-01-31T21:13:38.782Z,2.90
2023-01-31T21:16:08.665Z,2.80
2023-01-31T21:18:38.248Z,2.80
2023-01-31T21:21:09.521Z,2.80
2023-01-31T21:23:38.344Z,2.80
2023-01-31T21:26:08.499Z,2.80
2023-01-31T21:28:37.467Z,2.80
2023-01-31T21:31:07.550Z,2.80
2023-01-31T21:33:35.664Z,2.80
2023-01-31T21:36:10.465Z,2.80
2023-01-31T21:38:38.466Z,2.80
2023-01-31T21:41:24.313Z,2.80
2023-01-31T21:43:52.325Z,2.80
2023-01-31T21:46:20.620Z,2.80
2023-01-31T21:48:48.483Z,2.80
2023-01-31T21:51:19.513Z,2.80
2023-01-31T21:53:47.751Z,2.80
2023-01-31T21:56:18.553Z,2.80
2023-01-31T21:58:46.759Z,2.80
2023-01-31T22:01:17.715Z,2.80
2023-01-31T22:03:48.117Z,2.70
2023-01-31T22:06:19.451Z,2.70
2023-01-31T22:08:51.599Z,2.80
2023-01-31T22:11:19.592Z,2.80
2023-01-31T22:13:51.350Z,2.80
2023-01-31T22:16:21.915Z,2.80
2023-01-31T22:18:50.033Z,2.80
2023-01-31T22:21:20.719Z,2.80
2023-01-31T22:23:50.383Z,2.70
2023-01-31T22:26:20.339Z,2.80
2023-01-31T22:28:48.191Z,2.80
2023-01-31T22:31:18.058Z,2.80
2023-01-31T22:33:45.974Z,2.80
2023-01-31T22:36:15.031Z,2.80
2023-01-31T22:38:45.405Z,2.80
2023-01-31T22:41:18.273Z,2.70
2023-01-31T22:43:49.474Z,2.80
2023-01-31T22:46:19.169Z,2.80
2023-01-31T22:48:49.175Z,2.70
2023-01-31T22:51:19.393Z,2.80
2023-01-31T22:53:49.091Z,2.80
2023-01-31T22:56:18.641Z,2.80
2023-01-31T23:01:24.006Z,2.80
2023-01-31T23:03:51.978Z,2.80
2023-01-31T23:06:19.877Z,2.80
2023-01-31T23:08:49.119Z,2.80
2023-01-31T23:11:18.460Z,2.80
2023-01-31T23:13:46.751Z,2.80
2023-01-31T23:16:17.960Z,2.80
2023-01-31T23:18:46.460Z,2.80
2023-01-31T23:21:16.623Z,2.80
2023-01-31T23:23:45.337Z,2.80
2023-01-31T23:26:14.852Z,2.80
2023-01-31T23:28:42.756Z,2.80
2023-01-31T23:31:12.369Z,2.80
2023-01-31T23:33:40.307Z,2.80
2023-01-31T23:36:08.713Z,2.80
2023-01-31T23:38:36.626Z,2.80
2023-01-31T23:41:04.523Z,2.80
2023-01-31T23:43:33.747Z,2.80
2023-01-31T23:46:01.711Z,2.80
2023-01-31T23:48:29.619Z,2.80
2023-01-31T23:51:03.594Z,2.80
2023-01-31T23:53:31.591Z,2.80
2023-01-31T23:55:59.353Z,2.80
2023-01-31T23:58:27.164Z,2.80
